Skip Navigation Links
NOAA logo - Click to go to the NOAA homepage
NOAA's National Weather Service
Alaska Aviation Weather Unit
  NWS logo - Click to go to the NWS homepage
Left Navbar Graphic     21 AKDT = 05 GMT

   
NOAA is celebrating 200 years of science, service, and stewardship. Visit the NOAA 200th celebration Web site to learn more.
USA.gov is the U.S. Government's official Web portal to all Federal, state and local government Web resources and services.
Facebook
NWS on Facebook

AAWU Home :: Display TAF Add Bookmark
TAF PABI 262334Z 2623/2804 29009KT 9999 SCT015 BKN030 OVC060
      610406 QNH2954INS
      TEMPO 2706/2714 9000 -SHRA SCT008 BKN015 610159 TX11/2700Z
      TN00/2714Z=
METAR PABI 262353Z 31007KT 10SM FEW050 SCT080 OVC095 10/M02 A2951=

METAR PABI 270053Z 29006KT 10SM FEW050 BKN070 OVC095 10/M02 A2951=

METAR PABI 270153Z 00000KT 10SM SCT060 SCT070 OVC085 10/M01 A2951=

METAR PABI 270253Z 28008KT 10SM FEW065 OVC085 09/M02 A2952=

METAR PABI 270353Z 27010KT 10SM FEW040 BKN055 OVC080 09/M03 A2952=

METAR PABI 270453Z 27009KT 10SM OVC049 08/M02 A2954 RMK AO2 SLP015 VIRGA
     DSNT ALQDS T00831017 $=


NOAA's National Weather Service
Alaska Aviation Weather Unit
6930 Sand Lake Road
Anchorage, AK 99502-1845
Disclaimer
Credits
Glossary
Privacy Policy
About Us
Career Opportunities
Contact AAWU Internet Services Site last modified: April, 17th 2012